QTR93V OTHH-KMIA
Flight info
| Callsign | QTR93V |
|---|---|
| Flight time | N/A |
| Altitude | 34000 |
| Route | DATR2W DATRI L564 MIGMA M628 AMBAG M321 KSA T503 OVANO L768 FIRAS R655 KTN Q538 ALE M861 NISAP UM861 BUK UL602 MAKOL DCT UTEKA DCT KOTUS DCT BABIT DCT SOGMO DCT SASAL DCT RENKA DCT INBED DCT BOMBI DCT ADKUV DCT LENDO DCT SOGRI DCT DENUT L610 KOPUL Q60 OKSAW DCT TIGWE L9 FELCA DCT FADZU L9 SLANY DCT TOBOR NATC ELSIR DCT CARAC M201 DRYED DCT BEXUM DCT GALVN DCT CNNOR DCT ZQA FOWEE2 |
| Aircraft | A35K/H-VGDW/C |
Departure
| Time | 2026-05-06 06:47 |
|---|---|
| Airport | Hamad International Airport (OTHH) |
Arrival
| Time | N/A |
|---|---|
| Airport | Miami International Airport (KMIA) |
| Time | Latitude | Longitude | Altitude | Speed | Heading |
|---|---|---|---|---|---|
| 2026-05-06 06:37 | 25.26688 | 51.61324 | 36 ft | 7 kts | 342° |
| 2026-05-06 06:37 | 25.26735 | 51.61326 | 36 ft | 7 kts | 17° |
| 2026-05-06 06:38 | 25.26779 | 51.61344 | 36 ft | 7 kts | 21° |
| 2026-05-06 06:38 | 25.26821 | 51.61365 | 36 ft | 7 kts | 26° |
| 2026-05-06 06:38 | 25.26894 | 51.61401 | 36 ft | 14 kts | 22° |
| 2026-05-06 06:38 | 25.26982 | 51.61449 | 36 ft | 14 kts | 39° |
| 2026-05-06 06:39 | 25.27027 | 51.61535 | 36 ft | 13 kts | 70° |
| 2026-05-06 06:39 | 25.27059 | 51.61630 | 35 ft | 13 kts | 66° |
| 2026-05-06 06:39 | 25.27138 | 51.61666 | 35 ft | 20 kts | 342° |
| 2026-05-06 06:39 | 25.27278 | 51.61606 | 35 ft | 21 kts | 338° |
| 2026-05-06 06:40 | 25.27409 | 51.61538 | 35 ft | 20 kts | 314° |
| 2026-05-06 06:40 | 25.27398 | 51.61408 | 35 ft | 18 kts | 247° |
| 2026-05-06 06:40 | 25.27351 | 51.61285 | 36 ft | 17 kts | 247° |
| 2026-05-06 06:40 | 25.27308 | 51.61166 | 36 ft | 17 kts | 249° |
| 2026-05-06 06:41 | 25.27267 | 51.61047 | 36 ft | 16 kts | 249° |
| 2026-05-06 06:41 | 25.27225 | 51.60930 | 36 ft | 16 kts | 244° |
| 2026-05-06 06:41 | 25.27182 | 51.60816 | 36 ft | 16 kts | 248° |
| 2026-05-06 06:41 | 25.27141 | 51.60703 | 36 ft | 16 kts | 248° |
| 2026-05-06 06:42 | 25.27101 | 51.60592 | 36 ft | 16 kts | 248° |
| 2026-05-06 06:42 | 25.27061 | 51.60482 | 36 ft | 15 kts | 248° |
| 2026-05-06 06:42 | 25.27021 | 51.60372 | 35 ft | 15 kts | 248° |
| 2026-05-06 06:42 | 25.26982 | 51.60263 | 35 ft | 15 kts | 248° |
| 2026-05-06 06:43 | 25.26929 | 51.60163 | 34 ft | 15 kts | 211° |
| 2026-05-06 06:43 | 25.26829 | 51.60177 | 34 ft | 16 kts | 159° |
| 2026-05-06 06:43 | 25.26693 | 51.60237 | 34 ft | 22 kts | 158° |
| 2026-05-06 06:43 | 25.26552 | 51.60299 | 34 ft | 21 kts | 158° |
| 2026-05-06 06:44 | 25.26415 | 51.60359 | 35 ft | 21 kts | 158° |
| 2026-05-06 06:44 | 25.26284 | 51.60417 | 35 ft | 20 kts | 158° |
| 2026-05-06 06:44 | 25.26154 | 51.60474 | 35 ft | 20 kts | 158° |
| 2026-05-06 06:44 | 25.26026 | 51.60531 | 35 ft | 20 kts | 158° |
| 2026-05-06 06:45 | 25.25902 | 51.60585 | 35 ft | 19 kts | 158° |
| 2026-05-06 06:45 | 25.25777 | 51.60640 | 35 ft | 19 kts | 158° |
| 2026-05-06 06:45 | 25.25653 | 51.60694 | 35 ft | 19 kts | 162° |
| 2026-05-06 06:45 | 25.25584 | 51.60631 | 33 ft | 13 kts | 253° |
| 2026-05-06 06:46 | 25.25587 | 51.60529 | 31 ft | 14 kts | 302° |
| 2026-05-06 06:46 | 25.25638 | 51.60499 | 31 ft | 13 kts | 338° |
| 2026-05-06 06:46 | 25.25717 | 51.60464 | 32 ft | 13 kts | 338° |
| 2026-05-06 06:46 | 25.25994 | 51.60342 | 34 ft | 78 kts | 338° |
| 2026-05-06 06:47 | 25.26708 | 51.60028 | 31 ft | 141 kts | 338° |
| 2026-05-06 06:47 | 25.27803 | 51.59548 | 94 ft | 189 kts | 340° |
| 2026-05-06 06:47 | 25.29039 | 51.59005 | 758 ft | 192 kts | 339° |
| 2026-05-06 06:47 | 25.30291 | 51.58408 | 1302 ft | 205 kts | 339° |
| 2026-05-06 06:48 | 25.31662 | 51.57799 | 1705 ft | 220 kts | 341° |
| 2026-05-06 06:48 | 25.33092 | 51.57180 | 1985 ft | 223 kts | 340° |
| 2026-05-06 06:48 | 25.34564 | 51.56536 | 2257 ft | 228 kts | 340° |
| 2026-05-06 06:48 | 25.36061 | 51.55881 | 2439 ft | 239 kts | 340° |
| 2026-05-06 06:49 | 25.37651 | 51.55186 | 2616 ft | 251 kts | 339° |
| 2026-05-06 06:49 | 25.39315 | 51.54453 | 2854 ft | 261 kts | 339° |
| 2026-05-06 06:49 | 25.41018 | 51.53701 | 3236 ft | 264 kts | 339° |
| 2026-05-06 06:49 | 25.42743 | 51.52947 | 3622 ft | 267 kts | 339° |
| 2026-05-06 06:50 | 25.44481 | 51.52176 | 3820 ft | 269 kts | 339° |
| 2026-05-06 06:50 | 25.46188 | 51.51379 | 3842 ft | 269 kts | 334° |
| 2026-05-06 06:50 | 25.47657 | 51.50103 | 3841 ft | 271 kts | 308° |
| 2026-05-06 06:50 | 25.48385 | 51.48195 | 3847 ft | 274 kts | 278° |
| 2026-05-06 06:51 | 25.48411 | 51.46069 | 3843 ft | 278 kts | 268° |
| 2026-05-06 06:51 | 25.48293 | 51.43930 | 3843 ft | 279 kts | 268° |
| 2026-05-06 06:51 | 25.48176 | 51.41785 | 3845 ft | 279 kts | 268° |
| 2026-05-06 06:51 | 25.48069 | 51.39667 | 3841 ft | 279 kts | 269° |
| 2026-05-06 06:52 | 25.47967 | 51.37521 | 3924 ft | 279 kts | 269° |
| 2026-05-06 06:52 | 25.47868 | 51.35357 | 4251 ft | 281 kts | 269° |
| 2026-05-06 06:52 | 25.47773 | 51.33222 | 4704 ft | 281 kts | 268° |
| 2026-05-06 06:52 | 25.47677 | 51.31052 | 5083 ft | 283 kts | 268° |
| 2026-05-06 06:53 | 25.47457 | 51.28880 | 5464 ft | 286 kts | 256° |
| 2026-05-06 06:53 | 25.46565 | 51.26913 | 5797 ft | 288 kts | 228° |
| 2026-05-06 06:53 | 25.44949 | 51.25613 | 6146 ft | 289 kts | 200° |
| 2026-05-06 06:53 | 25.42996 | 51.25227 | 6471 ft | 289 kts | 180° |
| 2026-05-06 06:54 | 25.40984 | 51.25250 | 6763 ft | 290 kts | 178° |
| 2026-05-06 06:54 | 25.38955 | 51.25305 | 6846 ft | 291 kts | 178° |
| 2026-05-06 06:54 | 25.36932 | 51.25355 | 6846 ft | 291 kts | 178° |
| 2026-05-06 06:54 | 25.34926 | 51.25391 | 6844 ft | 291 kts | 178° |
| 2026-05-06 06:55 | 25.32893 | 51.25421 | 6879 ft | 292 kts | 178° |
| 2026-05-06 06:55 | 25.30839 | 51.25450 | 7195 ft | 294 kts | 179° |
| 2026-05-06 06:55 | 25.28821 | 51.25476 | 7607 ft | 294 kts | 179° |
| 2026-05-06 06:55 | 25.26778 | 51.25672 | 7976 ft | 295 kts | 165° |
| 2026-05-06 06:56 | 25.24821 | 51.26379 | 8381 ft | 296 kts | 159° |
| 2026-05-06 06:56 | 25.22893 | 51.27207 | 8806 ft | 296 kts | 159° |
| 2026-05-06 06:56 | 25.20979 | 51.28030 | 9240 ft | 298 kts | 159° |
| 2026-05-06 06:56 | 25.19043 | 51.28856 | 9654 ft | 299 kts | 160° |
| 2026-05-06 06:57 | 25.17089 | 51.29685 | 10052 ft | 300 kts | 159° |
| 2026-05-06 06:57 | 25.15115 | 51.30519 | 10346 ft | 308 kts | 160° |
| 2026-05-06 06:57 | 25.13079 | 51.31378 | 10544 ft | 318 kts | 159° |
| 2026-05-06 06:57 | 25.10997 | 51.32256 | 10741 ft | 328 kts | 160° |
| 2026-05-06 06:58 | 25.08825 | 51.33172 | 10920 ft | 339 kts | 159° |
| 2026-05-06 06:58 | 25.06571 | 51.34121 | 10994 ft | 353 kts | 159° |
| 2026-05-06 06:58 | 25.04254 | 51.35099 | 11010 ft | 368 kts | 159° |
| 2026-05-06 06:58 | 25.01808 | 51.36127 | 11003 ft | 381 kts | 159° |
| 2026-05-06 06:59 | 24.99273 | 51.37192 | 11003 ft | 394 kts | 159° |
| 2026-05-06 06:59 | 24.96715 | 51.38266 | 11002 ft | 400 kts | 159° |
| 2026-05-06 06:59 | 24.94087 | 51.39383 | 11126 ft | 406 kts | 157° |
| 2026-05-06 06:59 | 24.91593 | 51.40860 | 11493 ft | 405 kts | 146° |
| 2026-05-06 07:00 | 24.89280 | 51.42630 | 11928 ft | 403 kts | 144° |
| 2026-05-06 07:00 | 24.87009 | 51.44417 | 12155 ft | 409 kts | 143° |
| 2026-05-06 07:00 | 24.84671 | 51.46256 | 12399 ft | 412 kts | 144° |
| 2026-05-06 07:00 | 24.82327 | 51.48094 | 12757 ft | 414 kts | 144° |
| 2026-05-06 07:01 | 24.80105 | 51.49831 | 13012 ft | 417 kts | 144° |
| 2026-05-06 07:01 | 24.77759 | 51.51663 | 13399 ft | 416 kts | 144° |
| 2026-05-06 07:01 | 24.75402 | 51.53501 | 13835 ft | 415 kts | 144° |
| 2026-05-06 07:01 | 24.72954 | 51.55224 | 14060 ft | 419 kts | 154° |
| 2026-05-06 07:02 | 24.70169 | 51.56181 | 14298 ft | 422 kts | 173° |
| 2026-05-06 07:02 | 24.67232 | 51.56182 | 14608 ft | 421 kts | 186° |
| 2026-05-06 07:02 | 24.64320 | 51.55690 | 14835 ft | 424 kts | 192° |
| 2026-05-06 07:02 | 24.61430 | 51.54968 | 15057 ft | 427 kts | 195° |
| 2026-05-06 07:03 | 24.58585 | 51.54175 | 15448 ft | 425 kts | 195° |
| 2026-05-06 07:03 | 24.55695 | 51.53372 | 15773 ft | 426 kts | 194° |
| 2026-05-06 07:03 | 24.52811 | 51.52606 | 16069 ft | 427 kts | 194° |
| 2026-05-06 07:03 | 24.49938 | 51.51880 | 16359 ft | 429 kts | 193° |
| 2026-05-06 07:04 | 24.47013 | 51.51168 | 16654 ft | 430 kts | 193° |
| 2026-05-06 07:04 | 24.44071 | 51.50471 | 16931 ft | 431 kts | 193° |
| 2026-05-06 07:04 | 24.41174 | 51.49790 | 17221 ft | 432 kts | 193° |
| 2026-05-06 07:04 | 24.38212 | 51.49099 | 17425 ft | 435 kts | 193° |
| 2026-05-06 07:05 | 24.35240 | 51.48404 | 17705 ft | 436 kts | 193° |
| 2026-05-06 07:05 | 24.32266 | 51.47709 | 17840 ft | 437 kts | 193° |
| 2026-05-06 07:05 | 24.29290 | 51.47011 | 17846 ft | 437 kts | 193° |
| 2026-05-06 07:05 | 24.26304 | 51.46310 | 17842 ft | 438 kts | 193° |
| 2026-05-06 07:06 | 24.23353 | 51.45649 | 17839 ft | 438 kts | 191° |
| 2026-05-06 07:06 | 24.20309 | 51.45314 | 17842 ft | 439 kts | 184° |
| 2026-05-06 07:06 | 24.17240 | 51.45186 | 17840 ft | 439 kts | 182° |
| 2026-05-06 07:06 | 24.14175 | 51.45150 | 17835 ft | 439 kts | 181° |
| 2026-05-06 07:07 | 24.11153 | 51.45163 | 17837 ft | 440 kts | 181° |
| 2026-05-06 07:07 | 24.08092 | 51.45192 | 17836 ft | 440 kts | 180° |
| 2026-05-06 07:07 | 24.05028 | 51.45226 | 17834 ft | 440 kts | 181° |
| 2026-05-06 07:07 | 24.01942 | 51.45252 | 17835 ft | 440 kts | 180° |
| 2026-05-06 07:08 | 23.98920 | 51.45271 | 17834 ft | 440 kts | 180° |
| 2026-05-06 07:08 | 23.95857 | 51.45285 | 17835 ft | 440 kts | 181° |
| 2026-05-06 07:08 | 23.92789 | 51.45296 | 17832 ft | 439 kts | 180° |
| 2026-05-06 07:08 | 23.89721 | 51.45305 | 17825 ft | 439 kts | 180° |
| 2026-05-06 07:09 | 23.86695 | 51.45314 | 17834 ft | 440 kts | 180° |
| 2026-05-06 07:09 | 23.83627 | 51.45325 | 17829 ft | 440 kts | 180° |
| 2026-05-06 07:09 | 23.80557 | 51.45334 | 17829 ft | 440 kts | 180° |
| 2026-05-06 07:09 | 23.77487 | 51.45344 | 17829 ft | 440 kts | 180° |
| 2026-05-06 07:10 | 23.74406 | 51.45355 | 17824 ft | 441 kts | 180° |
| 2026-05-06 07:10 | 23.71374 | 51.45365 | 17827 ft | 440 kts | 180° |
| 2026-05-06 07:10 | 23.68296 | 51.45376 | 17826 ft | 440 kts | 180° |
| 2026-05-06 07:10 | 23.65218 | 51.45386 | 17820 ft | 440 kts | 180° |
| 2026-05-06 07:11 | 23.62193 | 51.45396 | 17823 ft | 441 kts | 180° |
| 2026-05-06 07:11 | 23.59115 | 51.45407 | 17824 ft | 441 kts | 180° |
| 2026-05-06 07:11 | 23.56031 | 51.45418 | 17823 ft | 441 kts | 180° |
| 2026-05-06 07:11 | 23.52953 | 51.45428 | 17824 ft | 441 kts | 180° |
| 2026-05-06 07:12 | 23.49915 | 51.45438 | 17825 ft | 441 kts | 180° |
| 2026-05-06 07:12 | 23.46841 | 51.45450 | 17823 ft | 442 kts | 180° |
| 2026-05-06 07:12 | 23.43759 | 51.45483 | 17824 ft | 441 kts | 180° |
| 2026-05-06 07:12 | 23.40686 | 51.45532 | 17824 ft | 442 kts | 180° |
| 2026-05-06 07:13 | 23.37608 | 51.45586 | 17823 ft | 442 kts | 180° |
| 2026-05-06 07:13 | 23.34558 | 51.45641 | 17823 ft | 442 kts | 180° |
| 2026-05-06 07:13 | 23.31479 | 51.45694 | 17824 ft | 442 kts | 180° |
| 2026-05-06 07:13 | 23.28400 | 51.45746 | 17824 ft | 442 kts | 180° |
| 2026-05-06 07:14 | 23.25301 | 51.45795 | 17824 ft | 442 kts | 180° |
| 2026-05-06 07:14 | 23.22217 | 51.45844 | 17823 ft | 443 kts | 180° |
| 2026-05-06 07:14 | 23.19172 | 51.45893 | 17824 ft | 443 kts | 180° |
| 2026-05-06 07:14 | 23.16080 | 51.45936 | 17823 ft | 442 kts | 180° |
| 2026-05-06 07:15 | 23.12997 | 51.45976 | 17825 ft | 443 kts | 180° |
| 2026-05-06 07:15 | 23.09911 | 51.46015 | 17826 ft | 443 kts | 180° |
| 2026-05-06 07:15 | 23.06860 | 51.46054 | 17826 ft | 443 kts | 180° |
| 2026-05-06 07:15 | 23.03769 | 51.46095 | 17826 ft | 443 kts | 180° |
| 2026-05-06 07:16 | 23.00685 | 51.46137 | 17828 ft | 443 kts | 180° |
| 2026-05-06 07:16 | 22.97598 | 51.46179 | 17826 ft | 443 kts | 180° |
| 2026-05-06 07:16 | 22.94550 | 51.46179 | 17818 ft | 443 kts | 184° |
| 2026-05-06 07:16 | 22.91488 | 51.45768 | 17820 ft | 441 kts | 193° |
| 2026-05-06 07:17 | 22.88571 | 51.44755 | 17819 ft | 440 kts | 205° |
| 2026-05-06 07:17 | 22.85937 | 51.43103 | 17824 ft | 438 kts | 218° |
| 2026-05-06 07:17 | 22.83715 | 51.40859 | 17823 ft | 436 kts | 231° |
| 2026-05-06 07:17 | 22.82042 | 51.38167 | 17824 ft | 434 kts | 244° |
| 2026-05-06 07:18 | 22.80962 | 51.35130 | 17825 ft | 432 kts | 257° |
| 2026-05-06 07:18 | 22.80527 | 51.31900 | 17819 ft | 431 kts | 269° |
| 2026-05-06 07:18 | 22.80752 | 51.28673 | 17823 ft | 429 kts | 281° |
| 2026-05-06 07:18 | 22.81612 | 51.25585 | 17823 ft | 428 kts | 294° |
| 2026-05-06 07:19 | 22.83028 | 51.22794 | 17829 ft | 428 kts | 303° |
| 2026-05-06 07:19 | 22.84534 | 51.20009 | 17822 ft | 429 kts | 297° |
| 2026-05-06 07:19 | 22.85709 | 51.17030 | 17822 ft | 429 kts | 288° |
| 2026-05-06 07:19 | 22.86401 | 51.13874 | 17829 ft | 430 kts | 280° |
| 2026-05-06 07:20 | 22.86828 | 51.10656 | 17826 ft | 430 kts | 277° |
| 2026-05-06 07:20 | 22.87111 | 51.07425 | 17825 ft | 431 kts | 275° |
| 2026-05-06 07:20 | 22.87316 | 51.04219 | 17825 ft | 430 kts | 274° |
| 2026-05-06 07:20 | 22.87496 | 51.00963 | 17826 ft | 431 kts | 274° |
| 2026-05-06 07:21 | 22.87675 | 50.97709 | 17826 ft | 431 kts | 274° |
| 2026-05-06 07:21 | 22.87861 | 50.94497 | 17829 ft | 431 kts | 274° |
| 2026-05-06 07:21 | 22.88062 | 50.91237 | 17829 ft | 431 kts | 274° |
| 2026-05-06 07:21 | 22.88269 | 50.87991 | 17829 ft | 430 kts | 274° |
| 2026-05-06 07:22 | 22.88481 | 50.84758 | 17829 ft | 430 kts | 274° |
| 2026-05-06 07:22 | 22.88693 | 50.81559 | 17829 ft | 430 kts | 274° |
| 2026-05-06 07:22 | 22.88906 | 50.78325 | 17832 ft | 430 kts | 274° |
| 2026-05-06 07:22 | 22.89120 | 50.75082 | 17831 ft | 429 kts | 274° |
| 2026-05-06 07:23 | 22.89330 | 50.71858 | 17831 ft | 429 kts | 274° |
| 2026-05-06 07:23 | 22.89541 | 50.68616 | 17831 ft | 429 kts | 274° |
| 2026-05-06 07:23 | 22.89751 | 50.65379 | 17831 ft | 430 kts | 274° |
| 2026-05-06 07:23 | 22.89957 | 50.62183 | 17832 ft | 429 kts | 274° |
| 2026-05-06 07:24 | 22.90165 | 50.58953 | 17834 ft | 429 kts | 274° |
| 2026-05-06 07:24 | 22.90372 | 50.55722 | 17832 ft | 428 kts | 274° |
| 2026-05-06 07:24 | 22.90578 | 50.52494 | 17831 ft | 428 kts | 274° |
| 2026-05-06 07:24 | 22.90784 | 50.49267 | 17831 ft | 429 kts | 274° |
| 2026-05-06 07:25 | 22.90988 | 50.46064 | 17833 ft | 429 kts | 274° |
| 2026-05-06 07:25 | 22.91193 | 50.42824 | 17834 ft | 429 kts | 274° |
| 2026-05-06 07:25 | 22.91398 | 50.39583 | 17832 ft | 429 kts | 274° |
| 2026-05-06 07:25 | 22.91599 | 50.36387 | 17832 ft | 429 kts | 274° |
| 2026-05-06 07:26 | 22.91802 | 50.33145 | 17830 ft | 429 kts | 274° |
| 2026-05-06 07:26 | 22.92004 | 50.29909 | 17834 ft | 429 kts | 274° |
| 2026-05-06 07:26 | 22.92203 | 50.26718 | 17835 ft | 429 kts | 274° |
| 2026-05-06 07:26 | 22.92404 | 50.23485 | 17835 ft | 429 kts | 274° |
| 2026-05-06 07:27 | 22.92605 | 50.20234 | 17835 ft | 429 kts | 274° |
| 2026-05-06 07:27 | 22.92803 | 50.17035 | 17834 ft | 429 kts | 274° |
| 2026-05-06 07:27 | 22.93002 | 50.13792 | 17835 ft | 430 kts | 274° |
| 2026-05-06 07:27 | 22.93200 | 50.10550 | 17834 ft | 429 kts | 274° |
| 2026-05-06 07:28 | 22.93398 | 50.07312 | 17835 ft | 429 kts | 274° |
| 2026-05-06 07:28 | 22.93595 | 50.04078 | 17835 ft | 430 kts | 274° |
| 2026-05-06 07:28 | 22.93986 | 49.97624 | 17834 ft | 430 kts | 274° |
| 2026-05-06 07:29 | 22.94181 | 49.94381 | 17834 ft | 430 kts | 274° |
| 2026-05-06 07:29 | 22.94373 | 49.91175 | 17834 ft | 430 kts | 274° |
| 2026-05-06 07:29 | 22.94568 | 49.87926 | 17837 ft | 431 kts | 274° |
| 2026-05-06 07:29 | 22.94763 | 49.84669 | 17838 ft | 432 kts | 274° |
| 2026-05-06 07:30 | 22.94954 | 49.81440 | 17836 ft | 432 kts | 274° |
| 2026-05-06 07:30 | 22.95147 | 49.78188 | 17837 ft | 432 kts | 274° |
| 2026-05-06 07:30 | 22.95339 | 49.74923 | 17840 ft | 432 kts | 274° |
| 2026-05-06 07:30 | 22.95532 | 49.71653 | 17840 ft | 432 kts | 274° |
| 2026-05-06 07:31 | 22.95720 | 49.68440 | 17841 ft | 432 kts | 274° |
| 2026-05-06 07:31 | 22.95910 | 49.65186 | 17840 ft | 432 kts | 274° |
| 2026-05-06 07:31 | 22.96100 | 49.61923 | 17840 ft | 432 kts | 274° |
| 2026-05-06 07:31 | 22.96289 | 49.58664 | 17840 ft | 432 kts | 274° |
| 2026-05-06 07:32 | 22.96475 | 49.55442 | 17840 ft | 432 kts | 274° |
| 2026-05-06 07:32 | 22.96663 | 49.52190 | 17840 ft | 432 kts | 274° |
| 2026-05-06 07:32 | 22.96851 | 49.48914 | 17840 ft | 432 kts | 273° |
| 2026-05-06 07:32 | 22.97035 | 49.45703 | 17840 ft | 432 kts | 273° |
| 2026-05-06 07:33 | 22.97220 | 49.42441 | 17839 ft | 432 kts | 273° |
| 2026-05-06 07:33 | 22.97405 | 49.39176 | 17840 ft | 432 kts | 273° |
| 2026-05-06 07:33 | 22.97590 | 49.35919 | 17840 ft | 432 kts | 273° |
| 2026-05-06 07:33 | 22.97771 | 49.32692 | 17840 ft | 432 kts | 273° |
| 2026-05-06 07:34 | 22.97955 | 49.29418 | 17837 ft | 432 kts | 273° |
| 2026-05-06 07:34 | 22.98138 | 49.26157 | 17837 ft | 432 kts | 273° |
| 2026-05-06 07:34 | 22.98258 | 49.23999 | 17839 ft | 432 kts | 273° |
| 2026-05-06 07:34 | 22.98499 | 49.19668 | 17842 ft | 433 kts | 273° |
| 2026-05-06 07:35 | 22.98620 | 49.17494 | 17862 ft | 434 kts | 273° |
| 2026-05-06 07:35 | 22.98800 | 49.14214 | 18112 ft | 435 kts | 273° |
| 2026-05-06 07:35 | 22.98981 | 49.10932 | 18377 ft | 436 kts | 273° |
| 2026-05-06 07:35 | 22.99162 | 49.07625 | 18649 ft | 437 kts | 273° |
| 2026-05-06 07:36 | 22.99342 | 49.04332 | 18953 ft | 436 kts | 273° |
| 2026-05-06 07:36 | 22.99519 | 49.01079 | 19197 ft | 437 kts | 272° |
| 2026-05-06 07:36 | 22.99707 | 48.97776 | 19423 ft | 439 kts | 273° |
| 2026-05-06 07:36 | 22.99950 | 48.94469 | 19652 ft | 440 kts | 274° |
| 2026-05-06 07:37 | 23.00230 | 48.91146 | 19902 ft | 441 kts | 275° |
| 2026-05-06 07:37 | 23.00520 | 48.87828 | 20139 ft | 442 kts | 275° |
| 2026-05-06 07:37 | 23.00807 | 48.84523 | 20377 ft | 443 kts | 275° |
| 2026-05-06 07:37 | 23.01091 | 48.81179 | 20613 ft | 445 kts | 274° |
| 2026-05-06 07:38 | 23.01368 | 48.77824 | 20856 ft | 446 kts | 274° |
| 2026-05-06 07:38 | 23.01641 | 48.74463 | 21084 ft | 447 kts | 274° |
| 2026-05-06 07:38 | 23.01908 | 48.71123 | 21331 ft | 449 kts | 274° |
| 2026-05-06 07:38 | 23.02179 | 48.67727 | 21583 ft | 450 kts | 274° |
| 2026-05-06 07:39 | 23.02448 | 48.64330 | 21816 ft | 451 kts | 274° |
| 2026-05-06 07:39 | 23.02714 | 48.60961 | 22080 ft | 452 kts | 274° |
| 2026-05-06 07:39 | 23.02985 | 48.57541 | 22354 ft | 452 kts | 274° |
| 2026-05-06 07:39 | 23.03254 | 48.54127 | 22634 ft | 453 kts | 274° |
| 2026-05-06 07:40 | 23.03519 | 48.50759 | 22853 ft | 454 kts | 274° |
| 2026-05-06 07:40 | 23.03788 | 48.47324 | 23096 ft | 456 kts | 274° |
| 2026-05-06 07:40 | 23.04056 | 48.43888 | 23326 ft | 457 kts | 274° |
| 2026-05-06 07:40 | 23.04326 | 48.40422 | 23490 ft | 459 kts | 274° |
| 2026-05-06 07:41 | 23.04593 | 48.36992 | 23676 ft | 461 kts | 274° |
| 2026-05-06 07:41 | 23.04864 | 48.33500 | 23868 ft | 461 kts | 274° |
| 2026-05-06 07:41 | 23.05132 | 48.30031 | 24078 ft | 462 kts | 274° |
| 2026-05-06 07:41 | 23.05399 | 48.26578 | 24264 ft | 463 kts | 274° |
| 2026-05-06 07:42 | 23.05668 | 48.23084 | 24458 ft | 464 kts | 274° |
| 2026-05-06 07:42 | 23.05938 | 48.19559 | 24642 ft | 466 kts | 273° |
| 2026-05-06 07:42 | 23.06204 | 48.16094 | 24834 ft | 467 kts | 273° |
| 2026-05-06 07:42 | 23.06472 | 48.12568 | 25058 ft | 468 kts | 273° |
| 2026-05-06 07:43 | 23.06741 | 48.09026 | 25276 ft | 469 kts | 273° |
| 2026-05-06 07:43 | 23.07009 | 48.05495 | 25503 ft | 470 kts | 273° |
| 2026-05-06 07:43 | 23.07277 | 48.01950 | 25734 ft | 471 kts | 273° |
| 2026-05-06 07:43 | 23.07545 | 47.98394 | 25991 ft | 471 kts | 273° |
| 2026-05-06 07:44 | 23.07809 | 47.94891 | 26319 ft | 471 kts | 273° |
| 2026-05-06 07:44 | 23.08075 | 47.91331 | 26566 ft | 472 kts | 273° |
| 2026-05-06 07:44 | 23.08428 | 47.87770 | 26777 ft | 474 kts | 277° |
| 2026-05-06 07:44 | 23.09146 | 47.84240 | 27016 ft | 478 kts | 284° |
| 2026-05-06 07:45 | 23.10282 | 47.80889 | 27229 ft | 482 kts | 292° |
| 2026-05-06 07:45 | 23.11905 | 47.77671 | 27443 ft | 487 kts | 301° |
| 2026-05-06 07:45 | 23.13982 | 47.74745 | 27646 ft | 493 kts | 309° |
| 2026-05-06 07:45 | 23.16499 | 47.72172 | 27845 ft | 499 kts | 318° |
| 2026-05-06 07:46 | 23.19349 | 47.69975 | 28063 ft | 503 kts | 323° |
| 2026-05-06 07:46 | 23.22283 | 47.67931 | 28269 ft | 505 kts | 324° |
| 2026-05-06 07:46 | 23.25289 | 47.65922 | 28509 ft | 506 kts | 325° |
| 2026-05-06 07:46 | 23.28269 | 47.63954 | 28728 ft | 506 kts | 325° |
| 2026-05-06 07:47 | 23.31288 | 47.61957 | 29015 ft | 505 kts | 324° |
| 2026-05-06 07:47 | 23.34293 | 47.59955 | 29289 ft | 504 kts | 324° |
| 2026-05-06 07:47 | 23.37283 | 47.57947 | 29544 ft | 504 kts | 324° |
| 2026-05-06 07:47 | 23.40266 | 47.55932 | 29754 ft | 504 kts | 324° |
| 2026-05-06 07:48 | 23.43206 | 47.53939 | 30006 ft | 504 kts | 323° |
| 2026-05-06 07:48 | 23.46192 | 47.51911 | 30213 ft | 503 kts | 323° |
| 2026-05-06 07:48 | 23.49152 | 47.49899 | 30422 ft | 502 kts | 323° |
| 2026-05-06 07:48 | 23.52099 | 47.47897 | 30615 ft | 502 kts | 323° |
| 2026-05-06 07:49 | 23.55071 | 47.45877 | 30832 ft | 501 kts | 323° |
| 2026-05-06 07:49 | 23.58032 | 47.43864 | 31047 ft | 500 kts | 323° |
| 2026-05-06 07:49 | 23.60982 | 47.41857 | 31241 ft | 499 kts | 323° |
| 2026-05-06 07:49 | 23.63902 | 47.39870 | 31349 ft | 501 kts | 323° |
| 2026-05-06 07:50 | 23.66853 | 47.37860 | 31525 ft | 500 kts | 323° |
| 2026-05-06 07:50 | 23.69812 | 47.35844 | 31664 ft | 501 kts | 323° |
| 2026-05-06 07:50 | 23.72778 | 47.33823 | 31849 ft | 500 kts | 323° |
| 2026-05-06 07:50 | 23.75690 | 47.31837 | 32022 ft | 499 kts | 323° |
| 2026-05-06 07:51 | 23.78637 | 47.29828 | 32208 ft | 499 kts | 322° |
| 2026-05-06 07:51 | 23.81599 | 47.27806 | 32354 ft | 499 kts | 322° |
| 2026-05-06 07:51 | 23.87476 | 47.23789 | 32562 ft | 500 kts | 322° |
| 2026-05-06 07:52 | 23.90453 | 47.21754 | 32746 ft | 499 kts | 322° |
| 2026-05-06 07:52 | 23.93358 | 47.19767 | 32915 ft | 498 kts | 322° |
| 2026-05-06 07:52 | 23.96296 | 47.17757 | 33060 ft | 498 kts | 322° |
| 2026-05-06 07:52 | 23.99256 | 47.15729 | 33078 ft | 500 kts | 322° |
| 2026-05-06 07:53 | 24.05128 | 47.11702 | 33323 ft | 500 kts | 322° |
| 2026-05-06 07:53 | 24.08083 | 47.09676 | 33452 ft | 499 kts | 322° |
| 2026-05-06 07:53 | 24.11089 | 47.07734 | 33569 ft | 503 kts | 327° |
| 2026-05-06 07:54 | 24.14279 | 47.06091 | 33691 ft | 506 kts | 330° |
| 2026-05-06 07:54 | 24.17472 | 47.04550 | 33789 ft | 506 kts | 331° |
| 2026-05-06 07:54 | 24.23997 | 47.01509 | 33740 ft | 513 kts | 331° |
| 2026-05-06 07:55 | 24.30567 | 46.98478 | 33865 ft | 514 kts | 331° |
| 2026-05-06 07:55 | 24.37161 | 46.95421 | 33955 ft | 515 kts | 331° |
| 2026-05-06 07:56 | 24.43770 | 46.92345 | 33956 ft | 513 kts | 330° |
| 2026-05-06 07:56 | 24.50290 | 46.89301 | 33964 ft | 513 kts | 330° |
| 2026-05-06 07:57 | 24.56902 | 46.86205 | 33966 ft | 516 kts | 330° |
| 2026-05-06 07:57 | 24.63534 | 46.83100 | 33971 ft | 519 kts | 330° |
| 2026-05-06 07:58 | 24.70174 | 46.79989 | 33991 ft | 520 kts | 330° |
| 2026-05-06 07:58 | 24.76849 | 46.76860 | 34005 ft | 521 kts | 330° |
| 2026-05-06 07:59 | 24.83481 | 46.73751 | 34011 ft | 516 kts | 330° |
| 2026-05-06 07:59 | 24.90118 | 46.70630 | 34022 ft | 518 kts | 330° |
| 2026-05-06 08:00 | 24.96625 | 46.67347 | 34042 ft | 512 kts | 322° |
| 2026-05-06 08:00 | 25.02219 | 46.62667 | 34020 ft | 499 kts | 311° |
| 2026-05-06 08:01 | 25.07322 | 46.57537 | 34015 ft | 498 kts | 309° |
| 2026-05-06 08:01 | 25.12827 | 46.52745 | 34013 ft | 508 kts | 319° |
| 2026-05-06 08:02 | 25.18708 | 46.48450 | 34009 ft | 509 kts | 319° |
| 2026-05-06 08:02 | 25.24144 | 46.43595 | 34008 ft | 498 kts | 310° |
| 2026-05-06 08:03 | 25.29113 | 46.38347 | 33799 ft | 493 kts | 308° |
| 2026-05-06 08:03 | 25.31560 | 46.35676 | 32993 ft | 493 kts | 308° |
| 2026-05-06 08:03 | 25.34008 | 46.32990 | 32382 ft | 495 kts | 308° |
| 2026-05-06 08:04 | 25.36469 | 46.30290 | 32076 ft | 500 kts | 308° |
| 2026-05-06 08:04 | 25.38918 | 46.27615 | 32005 ft | 502 kts | 308° |
| 2026-05-06 08:04 | 25.43916 | 46.22191 | 32010 ft | 503 kts | 309° |
| 2026-05-06 08:05 | 25.48933 | 46.16760 | 32013 ft | 504 kts | 308° |
| 2026-05-06 08:05 | 25.53921 | 46.11352 | 32009 ft | 504 kts | 308° |
| 2026-05-06 08:06 | 25.58919 | 46.05923 | 32012 ft | 504 kts | 308° |
| 2026-05-06 08:06 | 25.63936 | 46.00465 | 32021 ft | 504 kts | 308° |
| 2026-05-06 08:07 | 25.68929 | 45.95026 | 32012 ft | 504 kts | 308° |
| 2026-05-06 08:07 | 25.73938 | 45.89564 | 32012 ft | 504 kts | 308° |
| 2026-05-06 08:08 | 25.78911 | 45.84133 | 32015 ft | 504 kts | 308° |
| 2026-05-06 08:08 | 25.83925 | 45.78650 | 32015 ft | 504 kts | 308° |
| 2026-05-06 08:09 | 25.88905 | 45.73230 | 32018 ft | 505 kts | 309° |
| 2026-05-06 08:09 | 25.94052 | 45.67867 | 32018 ft | 506 kts | 309° |
| 2026-05-06 08:10 | 25.99194 | 45.62564 | 32018 ft | 506 kts | 309° |
| 2026-05-06 08:10 | 26.04338 | 45.57219 | 32020 ft | 506 kts | 309° |
| 2026-05-06 08:11 | 26.09477 | 45.51848 | 32020 ft | 505 kts | 309° |
| 2026-05-06 08:11 | 26.14575 | 45.46507 | 32021 ft | 506 kts | 309° |
| 2026-05-06 08:12 | 26.19691 | 45.41147 | 32020 ft | 506 kts | 309° |
| 2026-05-06 08:12 | 26.24821 | 45.35762 | 32021 ft | 506 kts | 308° |
| 2026-05-06 08:13 | 26.29951 | 45.30367 | 32020 ft | 505 kts | 308° |
| 2026-05-06 08:13 | 26.35047 | 45.25020 | 32020 ft | 505 kts | 308° |
| 2026-05-06 08:14 | 26.40169 | 45.19646 | 32015 ft | 503 kts | 308° |
| 2026-05-06 08:14 | 26.45198 | 45.14376 | 32018 ft | 496 kts | 308° |
| 2026-05-06 08:15 | 26.50249 | 45.09052 | 32018 ft | 500 kts | 308° |
| 2026-05-06 08:15 | 26.55286 | 45.03743 | 32017 ft | 500 kts | 308° |
| 2026-05-06 08:16 | 26.60322 | 44.98437 | 32016 ft | 498 kts | 308° |
| 2026-05-06 08:16 | 26.65379 | 44.93110 | 32016 ft | 496 kts | 308° |
| 2026-05-06 08:17 | 26.70362 | 44.87845 | 32017 ft | 490 kts | 308° |
| 2026-05-06 08:17 | 26.75287 | 44.82639 | 32017 ft | 484 kts | 308° |
| 2026-05-06 08:18 | 26.80151 | 44.77484 | 32016 ft | 484 kts | 307° |
| 2026-05-06 08:18 | 26.85032 | 44.72288 | 32016 ft | 484 kts | 307° |
| 2026-05-06 08:19 | 26.89922 | 44.67077 | 32025 ft | 484 kts | 307° |
| 2026-05-06 08:19 | 26.94801 | 44.61878 | 32017 ft | 483 kts | 307° |
| 2026-05-06 08:20 | 26.99650 | 44.56707 | 32017 ft | 483 kts | 307° |
| 2026-05-06 08:20 | 27.04531 | 44.51497 | 32020 ft | 483 kts | 307° |
| 2026-05-06 08:21 | 27.09384 | 44.46293 | 32020 ft | 483 kts | 307° |
| 2026-05-06 08:21 | 27.14259 | 44.41062 | 32044 ft | 483 kts | 307° |
| 2026-05-06 08:22 | 27.19096 | 44.35873 | 32024 ft | 483 kts | 307° |
| 2026-05-06 08:22 | 27.23142 | 44.31535 | 32020 ft | 482 kts | 307° |
| 2026-05-06 08:23 | 27.27978 | 44.26342 | 32034 ft | 482 kts | 307° |
| 2026-05-06 08:23 | 27.32859 | 44.21093 | 32111 ft | 483 kts | 307° |
| 2026-05-06 08:24 | 27.35255 | 44.18517 | 32397 ft | 480 kts | 307° |
| 2026-05-06 08:24 | 27.37669 | 44.15921 | 32639 ft | 478 kts | 307° |
| 2026-05-06 08:24 | 27.40083 | 44.13322 | 32847 ft | 477 kts | 307° |
| 2026-05-06 08:24 | 27.42481 | 44.10737 | 33012 ft | 476 kts | 307° |
| 2026-05-06 08:25 | 27.44849 | 44.08180 | 33169 ft | 476 kts | 307° |
| 2026-05-06 08:25 | 27.47245 | 44.05593 | 33369 ft | 475 kts | 307° |
| 2026-05-06 08:25 | 27.49634 | 44.03011 | 33497 ft | 474 kts | 307° |
| 2026-05-06 08:25 | 27.51992 | 44.00460 | 33616 ft | 475 kts | 307° |
| 2026-05-06 08:26 | 27.54384 | 43.97871 | 33738 ft | 475 kts | 307° |
| 2026-05-06 08:26 | 27.56769 | 43.95290 | 33899 ft | 474 kts | 307° |
| 2026-05-06 08:26 | 27.59119 | 43.92746 | 34006 ft | 474 kts | 306° |
| 2026-05-06 08:26 | 27.61495 | 43.90171 | 34035 ft | 473 kts | 306° |
| 2026-05-06 08:27 | 27.66260 | 43.85001 | 34035 ft | 475 kts | 306° |
| 2026-05-06 08:27 | 27.71019 | 43.79825 | 34028 ft | 479 kts | 306° |
| 2026-05-06 08:28 | 27.75845 | 43.74574 | 34047 ft | 481 kts | 307° |
| 2026-05-06 08:28 | 27.80666 | 43.69330 | 34048 ft | 481 kts | 307° |
| 2026-05-06 08:29 | 27.85465 | 43.64098 | 34034 ft | 480 kts | 306° |
| 2026-05-06 08:29 | 27.90072 | 43.58679 | 34038 ft | 472 kts | 303° |
| 2026-05-06 08:30 | 27.94482 | 43.53233 | 34041 ft | 473 kts | 303° |
| 2026-05-06 08:30 | 27.98962 | 43.47740 | 34042 ft | 475 kts | 303° |
| 2026-05-06 08:31 | 28.03490 | 43.42253 | 34072 ft | 475 kts | 303° |
| 2026-05-06 08:31 | 28.08013 | 43.36784 | 34046 ft | 478 kts | 303° |
| 2026-05-06 08:32 | 28.12547 | 43.31298 | 34040 ft | 478 kts | 303° |
| 2026-05-06 08:32 | 28.17108 | 43.25770 | 34048 ft | 478 kts | 303° |
| 2026-05-06 08:33 | 28.21607 | 43.20312 | 34035 ft | 474 kts | 303° |
| 2026-05-06 08:33 | 28.26102 | 43.14849 | 34056 ft | 471 kts | 303° |
| 2026-05-06 08:34 | 28.32781 | 43.06707 | 34043 ft | 471 kts | 303° |
| 2026-05-06 08:35 | 28.37267 | 43.01231 | 34057 ft | 471 kts | 303° |
| 2026-05-06 08:35 | 28.41721 | 42.95789 | 34055 ft | 472 kts | 303° |
| 2026-05-06 08:36 | 28.46203 | 42.90305 | 34069 ft | 472 kts | 303° |
| 2026-05-06 08:36 | 28.50656 | 42.84852 | 34057 ft | 473 kts | 303° |
| 2026-05-06 08:37 | 28.55113 | 42.79383 | 34060 ft | 475 kts | 303° |
| 2026-05-06 08:37 | 28.59637 | 42.73820 | 34057 ft | 477 kts | 303° |
| 2026-05-06 08:38 | 28.64120 | 42.68312 | 34059 ft | 476 kts | 303° |
| 2026-05-06 08:38 | 28.68628 | 42.62771 | 34059 ft | 476 kts | 303° |
| 2026-05-06 08:39 | 28.73148 | 42.57191 | 34063 ft | 477 kts | 303° |
| 2026-05-06 08:39 | 28.77627 | 42.51652 | 34063 ft | 478 kts | 303° |
| 2026-05-06 08:40 | 28.82135 | 42.46076 | 34066 ft | 478 kts | 303° |
| 2026-05-06 08:40 | 28.86654 | 42.40475 | 34088 ft | 480 kts | 303° |
| 2026-05-06 08:41 | 28.91151 | 42.34899 | 34069 ft | 480 kts | 303° |
| 2026-05-06 08:41 | 28.95679 | 42.29278 | 34073 ft | 480 kts | 303° |
| 2026-05-06 08:42 | 29.00193 | 42.23663 | 34077 ft | 480 kts | 303° |
| 2026-05-06 08:42 | 29.04714 | 42.18032 | 34094 ft | 479 kts | 303° |
| 2026-05-06 08:43 | 29.09196 | 42.12451 | 34087 ft | 479 kts | 303° |
| 2026-05-06 08:43 | 29.13692 | 42.06835 | 34086 ft | 473 kts | 303° |
| 2026-05-06 08:44 | 29.18096 | 42.01325 | 34093 ft | 472 kts | 303° |
| 2026-05-06 08:44 | 29.22549 | 41.95737 | 34082 ft | 473 kts | 303° |
| 2026-05-06 08:45 | 29.26972 | 41.90186 | 34110 ft | 474 kts | 303° |
| 2026-05-06 08:45 | 29.31430 | 41.84586 | 34100 ft | 475 kts | 303° |
| 2026-05-06 08:46 | 29.35890 | 41.78978 | 34101 ft | 475 kts | 303° |
| 2026-05-06 08:46 | 29.40324 | 41.73394 | 34103 ft | 475 kts | 303° |
| 2026-05-06 08:47 | 29.44773 | 41.67781 | 34110 ft | 475 kts | 303° |
| 2026-05-06 08:47 | 29.49226 | 41.62156 | 34107 ft | 475 kts | 303° |
| 2026-05-06 08:48 | 29.53656 | 41.56551 | 34111 ft | 475 kts | 303° |
| 2026-05-06 08:48 | 29.58081 | 41.50946 | 34115 ft | 476 kts | 303° |
| 2026-05-06 08:49 | 29.62548 | 41.45282 | 34115 ft | 475 kts | 303° |
| 2026-05-06 08:49 | 29.66937 | 41.39714 | 34121 ft | 470 kts | 303° |
| 2026-05-06 08:50 | 29.71324 | 41.34134 | 34151 ft | 469 kts | 303° |
| 2026-05-06 08:50 | 29.75976 | 41.28762 | 34122 ft | 476 kts | 308° |
| 2026-05-06 08:51 | 29.80872 | 41.23672 | 34125 ft | 479 kts | 309° |
| 2026-05-06 08:51 | 29.85890 | 41.18530 | 34122 ft | 483 kts | 309° |
| 2026-05-06 08:52 | 29.90887 | 41.13413 | 34122 ft | 483 kts | 309° |
| 2026-05-06 08:52 | 29.95913 | 41.08251 | 34132 ft | 481 kts | 309° |
| 2026-05-06 08:53 | 30.00891 | 41.03118 | 34125 ft | 483 kts | 309° |
| 2026-05-06 08:53 | 30.05939 | 40.97899 | 34127 ft | 487 kts | 309° |
| 2026-05-06 08:54 | 30.10955 | 40.92715 | 34129 ft | 485 kts | 309° |
| 2026-05-06 08:54 | 30.15983 | 40.87513 | 34128 ft | 484 kts | 309° |
| 2026-05-06 08:55 | 30.21005 | 40.82305 | 34125 ft | 484 kts | 309° |
| 2026-05-06 08:55 | 30.25984 | 40.77134 | 34124 ft | 483 kts | 309° |
| 2026-05-06 08:56 | 30.30998 | 40.71919 | 34119 ft | 483 kts | 309° |
| 2026-05-06 08:56 | 30.35975 | 40.66736 | 34119 ft | 483 kts | 309° |
| 2026-05-06 08:57 | 30.41006 | 40.61507 | 34122 ft | 484 kts | 309° |
| 2026-05-06 08:57 | 30.46034 | 40.56363 | 34116 ft | 484 kts | 310° |
| 2026-05-06 08:58 | 30.51097 | 40.51194 | 34113 ft | 483 kts | 309° |
| 2026-05-06 08:58 | 30.56115 | 40.46051 | 34113 ft | 483 kts | 310° |
| 2026-05-06 08:59 | 30.61157 | 40.40870 | 34110 ft | 483 kts | 310° |
| 2026-05-06 08:59 | 30.66175 | 40.35703 | 34102 ft | 483 kts | 310° |
| 2026-05-06 09:00 | 30.71184 | 40.30539 | 34105 ft | 483 kts | 309° |
| 2026-05-06 09:00 | 30.76223 | 40.25336 | 34121 ft | 483 kts | 309° |
| 2026-05-06 09:01 | 30.81232 | 40.20157 | 34091 ft | 483 kts | 310° |
| 2026-05-06 09:01 | 30.86249 | 40.14963 | 34101 ft | 482 kts | 310° |
| 2026-05-06 09:02 | 30.91268 | 40.09759 | 34082 ft | 482 kts | 310° |
| 2026-05-06 09:02 | 30.96255 | 40.04580 | 34098 ft | 482 kts | 310° |
| 2026-05-06 09:03 | 31.01265 | 39.99370 | 34087 ft | 482 kts | 310° |
| 2026-05-06 09:03 | 31.06268 | 39.94160 | 34092 ft | 481 kts | 310° |
| 2026-05-06 09:04 | 31.11237 | 39.88977 | 34088 ft | 481 kts | 310° |
| 2026-05-06 09:04 | 31.16253 | 39.83738 | 34082 ft | 481 kts | 310° |
| 2026-05-06 09:05 | 31.21219 | 39.78544 | 34084 ft | 481 kts | 310° |
| 2026-05-06 09:05 | 31.26180 | 39.73346 | 34079 ft | 480 kts | 310° |
| 2026-05-06 09:06 | 31.31169 | 39.68111 | 34074 ft | 480 kts | 310° |
| 2026-05-06 09:06 | 31.36115 | 39.62914 | 34075 ft | 480 kts | 310° |
| 2026-05-06 09:07 | 31.41075 | 39.57695 | 34095 ft | 480 kts | 310° |
| 2026-05-06 09:07 | 31.46062 | 39.52447 | 34076 ft | 480 kts | 310° |
| 2026-05-06 09:08 | 31.51011 | 39.47222 | 34076 ft | 480 kts | 309° |
| 2026-05-06 09:08 | 31.55954 | 39.41993 | 34080 ft | 480 kts | 309° |
| 2026-05-06 09:09 | 31.60924 | 39.36728 | 34078 ft | 480 kts | 309° |
| 2026-05-06 09:09 | 31.65860 | 39.31496 | 34087 ft | 479 kts | 309° |
| 2026-05-06 09:10 | 31.69971 | 39.27133 | 34089 ft | 478 kts | 309° |
| 2026-05-06 09:10 | 31.74911 | 39.21880 | 34088 ft | 478 kts | 309° |
| 2026-05-06 09:11 | 31.80000 | 39.16839 | 34072 ft | 487 kts | 317° |
| 2026-05-06 09:11 | 31.85974 | 39.12859 | 34080 ft | 495 kts | 324° |
| 2026-05-06 09:12 | 31.92093 | 39.09236 | 34086 ft | 494 kts | 325° |
| 2026-05-06 09:12 | 31.98267 | 39.05639 | 34083 ft | 494 kts | 325° |
| 2026-05-06 09:13 | 32.04436 | 39.02013 | 34079 ft | 494 kts | 324° |
| 2026-05-06 09:13 | 32.10582 | 38.98386 | 34086 ft | 497 kts | 324° |
| 2026-05-06 09:14 | 32.16783 | 38.94732 | 34086 ft | 496 kts | 324° |
| 2026-05-06 09:14 | 32.22985 | 38.91069 | 34086 ft | 498 kts | 324° |
| 2026-05-06 09:15 | 32.29160 | 38.87412 | 34084 ft | 499 kts | 324° |
| 2026-05-06 09:15 | 32.35357 | 38.83738 | 34083 ft | 499 kts | 324° |
| 2026-05-06 09:16 | 32.41583 | 38.80040 | 34079 ft | 500 kts | 324° |
| 2026-05-06 09:16 | 32.47818 | 38.76331 | 34079 ft | 500 kts | 324° |
| 2026-05-06 09:17 | 32.54025 | 38.72634 | 34079 ft | 500 kts | 324° |
| 2026-05-06 09:17 | 32.60218 | 38.68939 | 34079 ft | 500 kts | 324° |
| 2026-05-06 09:18 | 32.66431 | 38.65229 | 34101 ft | 501 kts | 325° |
| 2026-05-06 09:18 | 32.72670 | 38.61496 | 34088 ft | 501 kts | 325° |
| 2026-05-06 09:19 | 32.78915 | 38.57754 | 34084 ft | 501 kts | 325° |
| 2026-05-06 09:19 | 32.85128 | 38.54027 | 34082 ft | 501 kts | 325° |
| 2026-05-06 09:20 | 32.91364 | 38.50279 | 34099 ft | 502 kts | 325° |
| 2026-05-06 09:20 | 32.97585 | 38.46533 | 34086 ft | 503 kts | 325° |
| 2026-05-06 09:21 | 33.03812 | 38.42779 | 34085 ft | 503 kts | 325° |
| 2026-05-06 09:21 | 33.10069 | 38.38998 | 34083 ft | 503 kts | 325° |
| 2026-05-06 09:22 | 33.16297 | 38.35227 | 34089 ft | 503 kts | 325° |
| 2026-05-06 09:22 | 33.22573 | 38.31431 | 34084 ft | 504 kts | 325° |
| 2026-05-06 09:23 | 33.28822 | 38.27636 | 34084 ft | 504 kts | 325° |
| 2026-05-06 09:23 | 33.35084 | 38.23806 | 34087 ft | 505 kts | 325° |
| 2026-05-06 09:24 | 33.41311 | 38.19993 | 34087 ft | 505 kts | 325° |
| 2026-05-06 09:24 | 33.47577 | 38.16158 | 34087 ft | 506 kts | 325° |
| 2026-05-06 09:25 | 33.53834 | 38.12358 | 34088 ft | 507 kts | 325° |
| 2026-05-06 09:25 | 33.60147 | 38.08526 | 34089 ft | 507 kts | 325° |
| 2026-05-06 09:26 | 33.66419 | 38.04710 | 34083 ft | 507 kts | 325° |
| 2026-05-06 09:26 | 33.72723 | 38.00864 | 34096 ft | 507 kts | 325° |
| 2026-05-06 09:27 | 33.78996 | 37.97030 | 34078 ft | 508 kts | 325° |
| 2026-05-06 09:27 | 33.85064 | 37.92769 | 34083 ft | 496 kts | 315° |
| 2026-05-06 09:28 | 33.89745 | 37.86997 | 34081 ft | 477 kts | 298° |
| 2026-05-06 09:28 | 33.93412 | 37.80358 | 34081 ft | 474 kts | 296° |
| 2026-05-06 09:29 | 33.96909 | 37.73595 | 34083 ft | 474 kts | 295° |
| 2026-05-06 09:29 | 34.00376 | 37.66864 | 34084 ft | 475 kts | 295° |
| 2026-05-06 09:30 | 34.03861 | 37.60141 | 34081 ft | 475 kts | 295° |
| 2026-05-06 09:30 | 34.07386 | 37.53363 | 34084 ft | 475 kts | 296° |
| 2026-05-06 09:31 | 34.10884 | 37.46633 | 34099 ft | 476 kts | 296° |
| 2026-05-06 09:31 | 34.14405 | 37.39839 | 34082 ft | 475 kts | 296° |
| 2026-05-06 09:32 | 34.18388 | 37.33606 | 34081 ft | 474 kts | 309° |
| 2026-05-06 09:32 | 34.23791 | 37.28831 | 34081 ft | 491 kts | 326° |
| 2026-05-06 09:33 | 34.30424 | 37.26298 | 34078 ft | 512 kts | 346° |
| 2026-05-06 09:33 | 34.37578 | 37.25802 | 34082 ft | 520 kts | 352° |
| 2026-05-06 09:34 | 34.44834 | 37.25666 | 34080 ft | 520 kts | 353° |
| 2026-05-06 09:34 | 34.52065 | 37.25535 | 34081 ft | 520 kts | 352° |
| 2026-05-06 09:35 | 34.59260 | 37.25355 | 34085 ft | 520 kts | 352° |
| 2026-05-06 09:35 | 34.66505 | 37.25150 | 34089 ft | 518 kts | 352° |
| 2026-05-06 09:36 | 34.73674 | 37.24944 | 34084 ft | 517 kts | 352° |
| 2026-05-06 09:36 | 34.80884 | 37.24736 | 34116 ft | 517 kts | 352° |
| 2026-05-06 09:37 | 34.88069 | 37.24530 | 34077 ft | 513 kts | 353° |
| 2026-05-06 09:37 | 34.95217 | 37.24327 | 34083 ft | 513 kts | 352° |
| 2026-05-06 09:38 | 35.02315 | 37.24123 | 34109 ft | 513 kts | 353° |
| 2026-05-06 09:38 | 35.09438 | 37.23920 | 34080 ft | 511 kts | 353° |
| 2026-05-06 09:39 | 35.16556 | 37.23715 | 34076 ft | 510 kts | 353° |
| 2026-05-06 09:39 | 35.23647 | 37.23509 | 34097 ft | 510 kts | 353° |
| 2026-05-06 09:40 | 35.30711 | 37.23300 | 34077 ft | 509 kts | 353° |
| 2026-05-06 09:40 | 35.41354 | 37.22996 | 34075 ft | 509 kts | 353° |
| 2026-05-06 09:41 | 35.48400 | 37.22793 | 34078 ft | 509 kts | 353° |
| 2026-05-06 09:41 | 35.55487 | 37.22588 | 34070 ft | 508 kts | 353° |
| 2026-05-06 09:42 | 35.62570 | 37.22382 | 34072 ft | 508 kts | 353° |
| 2026-05-06 09:42 | 35.69623 | 37.22178 | 34071 ft | 508 kts | 353° |
| 2026-05-06 09:43 | 35.76683 | 37.21970 | 34068 ft | 513 kts | 353° |
| 2026-05-06 09:43 | 35.83869 | 37.21756 | 34085 ft | 517 kts | 353° |
| 2026-05-06 09:44 | 35.91102 | 37.21543 | 34077 ft | 521 kts | 353° |
| 2026-05-06 09:44 | 35.98339 | 37.21334 | 34088 ft | 522 kts | 353° |
| 2026-05-06 09:45 | 36.05631 | 37.21160 | 34102 ft | 523 kts | 354° |
| 2026-05-06 09:45 | 36.12856 | 37.20820 | 34104 ft | 517 kts | 347° |
| 2026-05-06 09:46 | 36.19651 | 37.18513 | 34102 ft | 502 kts | 330° |
| 2026-05-06 09:46 | 36.25532 | 37.14027 | 34100 ft | 493 kts | 319° |
| 2026-05-06 09:47 | 36.31047 | 37.08936 | 34092 ft | 493 kts | 318° |
| 2026-05-06 09:47 | 36.36493 | 37.03785 | 34076 ft | 493 kts | 318° |
| 2026-05-06 09:48 | 36.41940 | 36.98661 | 34076 ft | 493 kts | 318° |
| 2026-05-06 09:48 | 36.47405 | 36.93509 | 34047 ft | 492 kts | 318° |
| 2026-05-06 09:49 | 36.52868 | 36.88359 | 34043 ft | 492 kts | 318° |
| 2026-05-06 09:49 | 36.58312 | 36.83222 | 34043 ft | 492 kts | 318° |
| 2026-05-06 09:50 | 36.63732 | 36.78102 | 34047 ft | 487 kts | 318° |
| 2026-05-06 09:50 | 36.69109 | 36.73015 | 34056 ft | 482 kts | 319° |
| 2026-05-06 09:51 | 36.74420 | 36.67975 | 34058 ft | 483 kts | 319° |
| 2026-05-06 09:51 | 36.79791 | 36.62871 | 34060 ft | 483 kts | 319° |
| 2026-05-06 09:52 | 36.85078 | 36.57772 | 34065 ft | 481 kts | 318° |
| 2026-05-06 09:52 | 36.90336 | 36.52644 | 34069 ft | 480 kts | 318° |
| 2026-05-06 09:53 | 36.95614 | 36.47496 | 34069 ft | 479 kts | 318° |
| 2026-05-06 09:53 | 37.00884 | 36.42375 | 34082 ft | 478 kts | 318° |
| 2026-05-06 09:54 | 37.06093 | 36.37315 | 34078 ft | 474 kts | 318° |
| 2026-05-06 09:54 | 37.11303 | 36.32242 | 34078 ft | 472 kts | 318° |
| 2026-05-06 09:55 | 37.16469 | 36.27201 | 34090 ft | 472 kts | 318° |
| 2026-05-06 09:55 | 37.21628 | 36.22159 | 34083 ft | 470 kts | 318° |
| 2026-05-06 09:56 | 37.26802 | 36.17094 | 34081 ft | 470 kts | 318° |
| 2026-05-06 09:56 | 37.31929 | 36.12064 | 34080 ft | 470 kts | 318° |
| 2026-05-06 09:57 | 37.37089 | 36.06993 | 34080 ft | 470 kts | 318° |
| 2026-05-06 09:57 | 37.42210 | 36.01951 | 34080 ft | 469 kts | 318° |
| 2026-05-06 09:58 | 37.46508 | 35.97712 | 34087 ft | 469 kts | 318° |
| 2026-05-06 09:58 | 37.51651 | 35.92633 | 34079 ft | 469 kts | 318° |
| 2026-05-06 09:59 | 37.56776 | 35.87562 | 34077 ft | 469 kts | 318° |
| 2026-05-06 09:59 | 37.61881 | 35.82502 | 34068 ft | 468 kts | 318° |
| 2026-05-06 10:00 | 37.67022 | 35.77398 | 34073 ft | 468 kts | 318° |
| 2026-05-06 10:00 | 37.72121 | 35.72327 | 34066 ft | 467 kts | 319° |
| 2026-05-06 10:01 | 37.77221 | 35.67240 | 34068 ft | 465 kts | 318° |
| 2026-05-06 10:01 | 37.82264 | 35.62204 | 34061 ft | 464 kts | 318° |
| 2026-05-06 10:02 | 37.87345 | 35.57127 | 34055 ft | 463 kts | 318° |
| 2026-05-06 10:02 | 37.92387 | 35.52076 | 34053 ft | 463 kts | 318° |
| 2026-05-06 10:03 | 37.97450 | 35.46993 | 34058 ft | 463 kts | 319° |
| 2026-05-06 10:03 | 38.02483 | 35.41933 | 34054 ft | 462 kts | 318° |
| 2026-05-06 10:04 | 38.07534 | 35.36839 | 34066 ft | 463 kts | 318° |
| 2026-05-06 10:04 | 38.12549 | 35.31775 | 34049 ft | 463 kts | 318° |
| 2026-05-06 10:05 | 38.17601 | 35.26667 | 34048 ft | 463 kts | 318° |
| 2026-05-06 10:05 | 38.22609 | 35.21593 | 34057 ft | 461 kts | 319° |
| 2026-05-06 10:06 | 38.27625 | 35.16504 | 34057 ft | 460 kts | 319° |
| 2026-05-06 10:06 | 38.32608 | 35.11438 | 34060 ft | 460 kts | 319° |
| 2026-05-06 10:07 | 38.37616 | 35.06337 | 34064 ft | 460 kts | 319° |
| 2026-05-06 10:07 | 38.42602 | 35.01266 | 34063 ft | 460 kts | 319° |
| 2026-05-06 10:08 | 38.47608 | 34.96173 | 34064 ft | 458 kts | 319° |
| 2026-05-06 10:08 | 38.52598 | 34.91086 | 34072 ft | 457 kts | 319° |
| 2026-05-06 10:09 | 38.57545 | 34.86034 | 34072 ft | 457 kts | 319° |
| 2026-05-06 10:09 | 38.62521 | 34.80939 | 34071 ft | 462 kts | 319° |
| 2026-05-06 10:10 | 38.67545 | 34.75787 | 34080 ft | 462 kts | 319° |
| 2026-05-06 10:10 | 38.72533 | 34.70662 | 34077 ft | 460 kts | 320° |
| 2026-05-06 10:11 | 38.77522 | 34.65528 | 34102 ft | 458 kts | 319° |
| 2026-05-06 10:11 | 38.82492 | 34.60404 | 34104 ft | 458 kts | 319° |
| 2026-05-06 10:12 | 38.87434 | 34.55300 | 34101 ft | 458 kts | 319° |
| 2026-05-06 10:12 | 38.92408 | 34.50152 | 34097 ft | 458 kts | 319° |
| 2026-05-06 10:13 | 38.97344 | 34.45032 | 34095 ft | 459 kts | 320° |
| 2026-05-06 10:13 | 39.02332 | 34.39851 | 34091 ft | 462 kts | 320° |
| 2026-05-06 10:14 | 39.07350 | 34.34630 | 34092 ft | 462 kts | 320° |
| 2026-05-06 10:14 | 39.09812 | 34.32066 | 34317 ft | 458 kts | 320° |
| 2026-05-06 10:14 | 39.12287 | 34.29485 | 34580 ft | 455 kts | 320° |
| 2026-05-06 10:15 | 39.14751 | 34.26916 | 34706 ft | 455 kts | 320° |
| 2026-05-06 10:15 | 39.17218 | 34.24344 | 34845 ft | 455 kts | 320° |
| 2026-05-06 10:15 | 39.19652 | 34.21805 | 34952 ft | 455 kts | 320° |
| 2026-05-06 10:15 | 39.22125 | 34.19224 | 35117 ft | 454 kts | 320° |
| 2026-05-06 10:16 | 39.27023 | 34.14103 | 35237 ft | 456 kts | 320° |
| 2026-05-06 10:16 | 39.29493 | 34.11518 | 35340 ft | 456 kts | 320° |
| 2026-05-06 10:16 | 39.31972 | 34.08920 | 35431 ft | 456 kts | 320° |
| 2026-05-06 10:17 | 39.36906 | 34.03743 | 35637 ft | 457 kts | 320° |
| 2026-05-06 10:17 | 39.41823 | 33.98573 | 35795 ft | 458 kts | 320° |
| 2026-05-06 10:18 | 39.46771 | 33.93361 | 35961 ft | 457 kts | 320° |
| 2026-05-06 10:18 | 39.51713 | 33.88145 | 36100 ft | 458 kts | 320° |
| 2026-05-06 10:19 | 39.56649 | 33.82926 | 36102 ft | 459 kts | 320° |
| 2026-05-06 10:19 | 39.61589 | 33.77694 | 36104 ft | 461 kts | 320° |
| 2026-05-06 10:20 | 39.66558 | 33.72420 | 36096 ft | 460 kts | 320° |
| 2026-05-06 10:20 | 39.71477 | 33.67190 | 36093 ft | 458 kts | 320° |
| 2026-05-06 10:21 | 39.76405 | 33.61939 | 36098 ft | 457 kts | 320° |
| 2026-05-06 10:21 | 39.81352 | 33.56657 | 36103 ft | 461 kts | 320° |
| 2026-05-06 10:22 | 39.86297 | 33.51368 | 36101 ft | 462 kts | 320° |
| 2026-05-06 10:22 | 39.91268 | 33.46042 | 36104 ft | 462 kts | 320° |
| 2026-05-06 10:23 | 39.96215 | 33.40732 | 36099 ft | 462 kts | 320° |
| 2026-05-06 10:23 | 40.01163 | 33.35411 | 36096 ft | 462 kts | 320° |
| 2026-05-06 10:24 | 40.06127 | 33.30061 | 36090 ft | 461 kts | 320° |
| 2026-05-06 10:24 | 40.11051 | 33.24741 | 36103 ft | 461 kts | 320° |
| 2026-05-06 10:25 | 40.16017 | 33.19367 | 36100 ft | 463 kts | 320° |
| 2026-05-06 10:25 | 40.20967 | 33.14001 | 36100 ft | 463 kts | 320° |
| 2026-05-06 10:26 | 40.25404 | 33.07998 | 36101 ft | 461 kts | 307° |
| 2026-05-06 10:26 | 40.29157 | 33.01148 | 36097 ft | 461 kts | 306° |
| 2026-05-06 10:27 | 40.32759 | 32.94233 | 36096 ft | 461 kts | 305° |
| 2026-05-06 10:27 | 40.36368 | 32.87259 | 36090 ft | 461 kts | 305° |
| 2026-05-06 10:28 | 40.39965 | 32.80330 | 36078 ft | 461 kts | 305° |
| 2026-05-06 10:28 | 40.43571 | 32.73392 | 36077 ft | 461 kts | 305° |
| 2026-05-06 10:29 | 40.47191 | 32.66414 | 36091 ft | 461 kts | 306° |
| 2026-05-06 10:29 | 40.50786 | 32.59469 | 36076 ft | 462 kts | 306° |
| 2026-05-06 10:30 | 40.54409 | 32.52453 | 36077 ft | 462 kts | 305° |
| 2026-05-06 10:30 | 40.58008 | 32.45467 | 36058 ft | 462 kts | 306° |
| 2026-05-06 10:31 | 40.61592 | 32.38494 | 36076 ft | 461 kts | 306° |
| 2026-05-06 10:31 | 40.65189 | 32.31480 | 36078 ft | 461 kts | 305° |
| 2026-05-06 10:32 | 40.68780 | 32.24462 | 36078 ft | 461 kts | 305° |
| 2026-05-06 10:32 | 40.72360 | 32.17444 | 36077 ft | 461 kts | 305° |
| 2026-05-06 10:33 | 40.75866 | 32.10415 | 36081 ft | 460 kts | 304° |
| 2026-05-06 10:33 | 40.79350 | 32.03363 | 36086 ft | 459 kts | 304° |
| 2026-05-06 10:34 | 40.82848 | 31.96283 | 36085 ft | 459 kts | 305° |
| 2026-05-06 10:34 | 40.86332 | 31.89232 | 36090 ft | 460 kts | 305° |
| 2026-05-06 10:35 | 40.89838 | 31.82123 | 36095 ft | 460 kts | 305° |
| 2026-05-06 10:35 | 40.93314 | 31.75063 | 36102 ft | 460 kts | 304° |
| 2026-05-06 10:36 | 40.96809 | 31.67943 | 36094 ft | 461 kts | 304° |
| 2026-05-06 10:36 | 41.00296 | 31.60823 | 36122 ft | 462 kts | 304° |
| 2026-05-06 10:37 | 41.03792 | 31.53667 | 36113 ft | 462 kts | 304° |
| 2026-05-06 10:37 | 41.07263 | 31.46546 | 36118 ft | 462 kts | 304° |
| 2026-05-06 10:38 | 41.10767 | 31.39343 | 36119 ft | 463 kts | 304° |
| 2026-05-06 10:38 | 41.14243 | 31.32178 | 36118 ft | 463 kts | 304° |
| 2026-05-06 10:39 | 41.17716 | 31.25004 | 36122 ft | 463 kts | 304° |
| 2026-05-06 10:39 | 41.21201 | 31.17789 | 36121 ft | 463 kts | 304° |
| 2026-05-06 10:40 | 41.24685 | 31.10558 | 36124 ft | 463 kts | 304° |
| 2026-05-06 10:40 | 41.28146 | 31.03359 | 36127 ft | 463 kts | 304° |
| 2026-05-06 10:41 | 41.31617 | 30.96120 | 36124 ft | 464 kts | 304° |
| 2026-05-06 10:41 | 41.35077 | 30.88889 | 36122 ft | 465 kts | 304° |
| 2026-05-06 10:42 | 41.38553 | 30.81605 | 36121 ft | 465 kts | 304° |
| 2026-05-06 10:42 | 41.42004 | 30.74359 | 36118 ft | 465 kts | 304° |
| 2026-05-06 10:43 | 41.45493 | 30.67053 | 36124 ft | 467 kts | 304° |
| 2026-05-06 10:44 | 41.50747 | 30.56113 | 36125 ft | 466 kts | 304° |
| 2026-05-06 10:44 | 41.54223 | 30.48848 | 36118 ft | 466 kts | 304° |
| 2026-05-06 10:45 | 41.57709 | 30.41542 | 36124 ft | 468 kts | 304° |
| 2026-05-06 10:45 | 41.60618 | 30.35428 | 36124 ft | 468 kts | 304° |
| 2026-05-06 10:46 | 41.64115 | 30.28061 | 36127 ft | 468 kts | 304° |
| 2026-05-06 10:46 | 41.67589 | 30.20727 | 36127 ft | 469 kts | 304° |
| 2026-05-06 10:47 | 41.71084 | 30.13329 | 36128 ft | 469 kts | 303° |
| 2026-05-06 10:47 | 41.74576 | 30.05922 | 36127 ft | 469 kts | 303° |
| 2026-05-06 10:48 | 41.78045 | 29.98543 | 36125 ft | 469 kts | 303° |
| 2026-05-06 10:48 | 41.81512 | 29.91152 | 36131 ft | 469 kts | 303° |
| 2026-05-06 10:49 | 41.84972 | 29.83756 | 36125 ft | 469 kts | 303° |
| 2026-05-06 10:49 | 41.88449 | 29.76306 | 36124 ft | 469 kts | 303° |
| 2026-05-06 10:50 | 41.91895 | 29.68906 | 36125 ft | 469 kts | 303° |
| 2026-05-06 10:50 | 41.95361 | 29.61443 | 36126 ft | 469 kts | 303° |
| 2026-05-06 10:51 | 41.98796 | 29.54028 | 36137 ft | 469 kts | 303° |
| 2026-05-06 10:51 | 42.02256 | 29.46542 | 36128 ft | 470 kts | 303° |
| 2026-05-06 10:52 | 42.05696 | 29.39078 | 36129 ft | 470 kts | 303° |
| 2026-05-06 10:52 | 42.09125 | 29.31622 | 36129 ft | 470 kts | 303° |
| 2026-05-06 10:53 | 42.12566 | 29.24121 | 36130 ft | 470 kts | 303° |
| 2026-05-06 10:53 | 42.15994 | 29.16596 | 36127 ft | 469 kts | 301° |
| 2026-05-06 10:54 | 42.18735 | 29.08628 | 36128 ft | 471 kts | 294° |
| 2026-05-06 10:54 | 42.21184 | 29.00426 | 36130 ft | 471 kts | 293° |
| 2026-05-06 10:55 | 42.23569 | 28.92222 | 36120 ft | 471 kts | 293° |
| 2026-05-06 10:55 | 42.25962 | 28.83984 | 36127 ft | 470 kts | 293° |
| 2026-05-06 10:56 | 42.28342 | 28.75804 | 36127 ft | 470 kts | 293° |
| 2026-05-06 10:56 | 42.30735 | 28.67567 | 36127 ft | 470 kts | 293° |
| 2026-05-06 10:57 | 42.33106 | 28.59380 | 36127 ft | 470 kts | 293° |
| 2026-05-06 10:57 | 42.35487 | 28.51133 | 36123 ft | 470 kts | 293° |
| 2026-05-06 10:58 | 42.37850 | 28.42919 | 36121 ft | 470 kts | 293° |
| 2026-05-06 10:58 | 42.40217 | 28.34667 | 36106 ft | 470 kts | 293° |
| 2026-05-06 10:59 | 42.42564 | 28.26451 | 36116 ft | 469 kts | 293° |
| 2026-05-06 10:59 | 42.44917 | 28.18193 | 36112 ft | 469 kts | 293° |
| 2026-05-06 11:00 | 42.47244 | 28.10001 | 36128 ft | 468 kts | 293° |
| 2026-05-06 11:00 | 42.49579 | 28.01748 | 36115 ft | 468 kts | 293° |
| 2026-05-06 11:01 | 42.51895 | 27.93538 | 36107 ft | 467 kts | 293° |
| 2026-05-06 11:01 | 42.54223 | 27.85262 | 36108 ft | 468 kts | 293° |
| 2026-05-06 11:02 | 42.56520 | 27.77067 | 36107 ft | 468 kts | 293° |
| 2026-05-06 11:02 | 42.58830 | 27.68797 | 36103 ft | 468 kts | 293° |
| 2026-05-06 11:03 | 42.61122 | 27.60565 | 36099 ft | 468 kts | 293° |
| 2026-05-06 11:03 | 42.63422 | 27.52279 | 36103 ft | 467 kts | 293° |
| 2026-05-06 11:04 | 42.65697 | 27.44054 | 36102 ft | 467 kts | 293° |
| 2026-05-06 11:04 | 42.67986 | 27.35747 | 36097 ft | 466 kts | 293° |
| 2026-05-06 11:05 | 42.70248 | 27.27515 | 36090 ft | 466 kts | 293° |
| 2026-05-06 11:05 | 42.72500 | 27.19292 | 36079 ft | 466 kts | 292° |
| 2026-05-06 11:06 | 42.74761 | 27.11010 | 36049 ft | 466 kts | 292° |
| 2026-05-06 11:06 | 42.77002 | 27.02767 | 36062 ft | 465 kts | 292° |
| 2026-05-06 11:07 | 42.79228 | 26.94557 | 36056 ft | 464 kts | 292° |
| 2026-05-06 11:07 | 42.81464 | 26.86276 | 36051 ft | 464 kts | 292° |
| 2026-05-06 11:08 | 42.83679 | 26.78055 | 36050 ft | 465 kts | 292° |
| 2026-05-06 11:08 | 42.85903 | 26.69764 | 36047 ft | 464 kts | 292° |
| 2026-05-06 11:09 | 42.88123 | 26.61465 | 36045 ft | 464 kts | 292° |
| 2026-05-06 11:09 | 42.90323 | 26.53210 | 36045 ft | 464 kts | 292° |
| 2026-05-06 11:10 | 42.92518 | 26.44948 | 36041 ft | 465 kts | 292° |
| 2026-05-06 11:10 | 42.94723 | 26.36619 | 36033 ft | 465 kts | 292° |
| 2026-05-06 11:11 | 42.96903 | 26.28353 | 36031 ft | 465 kts | 292° |
| 2026-05-06 11:11 | 42.99097 | 26.20007 | 36026 ft | 465 kts | 292° |
| 2026-05-06 11:12 | 43.01270 | 26.11707 | 36021 ft | 464 kts | 292° |
| 2026-05-06 11:12 | 43.03439 | 26.03400 | 36020 ft | 464 kts | 292° |
| 2026-05-06 11:13 | 43.05593 | 25.95123 | 36017 ft | 463 kts | 292° |
| 2026-05-06 11:13 | 43.07751 | 25.86798 | 36017 ft | 463 kts | 292° |
| 2026-05-06 11:14 | 43.09899 | 25.78482 | 36021 ft | 462 kts | 292° |
| 2026-05-06 11:14 | 43.12022 | 25.70236 | 36020 ft | 462 kts | 292° |
| 2026-05-06 11:15 | 43.14155 | 25.61922 | 36019 ft | 461 kts | 292° |
| 2026-05-06 11:15 | 43.16276 | 25.53628 | 36018 ft | 461 kts | 292° |
| 2026-05-06 11:16 | 43.18394 | 25.45313 | 36014 ft | 461 kts | 292° |
| 2026-05-06 11:16 | 43.20489 | 25.37057 | 36010 ft | 461 kts | 292° |
| 2026-05-06 11:17 | 43.22597 | 25.28724 | 36005 ft | 462 kts | 291° |
| 2026-05-06 11:17 | 43.24697 | 25.20391 | 35997 ft | 461 kts | 292° |
| 2026-05-06 11:18 | 43.26779 | 25.12095 | 36002 ft | 459 kts | 292° |